ePrivacy and GPDR Cookie Consent by Cookie Consent
EmailTwitter


Observations de surface / France / LFMK (07635)

Régions: Québec | Canada | États-Unis | Europe | France | UK | Ailleurs
Station
Affichage
Infos & localisation pour LFMK (07635) | Aide pour décoder les METARs

Observations prises le 2021-09-22 à 00H00 UTC à CARCASSONNE/SALV, FR (LFMK)

Etat du ciel: partiellement nuageux.

Température: 13.0 Celsius

Point de rosée: 12.0 Celsius

Humidité relative: 94%

Vents: Variable à 4 km/h ou 2 noeuds.

Pression au niveau moyen de la mer: 102.50 kilopascals.

Visibilité horizontale: 6.21 milles terrestres ou 9.94 kilomètres.

Hauteur du plafond: 1585 mètres ( 5200 pieds ).

Observation METAR:

LFMK 220000Z AUTO VRB02KT 9999 BKN052 BKN064 BKN150 13/12 Q1025=